createdAt,value
2022-11-29T00:01:01.342Z,8.30
2022-11-29T00:03:28.551Z,8.28
2022-11-29T00:05:55.613Z,8.27
2022-11-29T00:08:24.117Z,8.28
2022-11-29T00:10:50.649Z,8.29
2022-11-29T00:13:17.543Z,8.31
2022-11-29T00:15:44.011Z,8.27
2022-11-29T00:18:10.519Z,8.25
2022-11-29T00:20:39.284Z,8.29
2022-11-29T00:23:06.035Z,8.27
2022-11-29T00:25:32.574Z,8.27
2022-11-29T00:27:59.083Z,8.27
2022-11-29T00:30:25.697Z,8.28
2022-11-29T00:32:52.240Z,8.26
2022-11-29T00:35:18.667Z,8.28
2022-11-29T00:37:45.209Z,8.25
2022-11-29T00:40:12.126Z,8.23
2022-11-29T00:42:38.582Z,8.21
2022-11-29T00:45:05.567Z,8.24
2022-11-29T00:47:32.064Z,8.21
2022-11-29T00:49:58.561Z,8.19
2022-11-29T00:52:24.992Z,8.15
2022-11-29T00:54:51.507Z,8.17
2022-11-29T00:57:17.975Z,8.15
2022-11-29T00:59:44.491Z,8.15
2022-11-29T01:02:10.939Z,8.12
2022-11-29T01:04:37.682Z,8.09
2022-11-29T01:07:04.153Z,8.06
2022-11-29T01:09:30.591Z,8.04
2022-11-29T01:11:57.076Z,8.01
2022-11-29T01:14:23.576Z,8.01
2022-11-29T01:16:50.018Z,8.03
2022-11-29T01:19:16.462Z,8.03
2022-11-29T01:21:42.908Z,8.02
2022-11-29T01:24:09.349Z,8.04
2022-11-29T01:26:35.834Z,8.04
2022-11-29T01:29:02.319Z,8.03
2022-11-29T01:31:36.005Z,8.06
2022-11-29T01:34:04.101Z,8.09
2022-11-29T01:36:31.304Z,8.11
2022-11-29T01:39:01.833Z,8.08
2022-11-29T01:41:31.291Z,8.13
2022-11-29T01:44:12.924Z,8.17
2022-11-29T01:46:44.452Z,8.12
2022-11-29T01:49:17.041Z,8.10
2022-11-29T01:51:49.409Z,8.15
2022-11-29T01:54:16.147Z,8.15
2022-11-29T01:56:47.221Z,8.13
2022-11-29T01:59:17.205Z,8.19
2022-11-29T02:01:43.757Z,8.21
2022-11-29T02:04:10.630Z,8.17
2022-11-29T02:06:38.739Z,8.14
2022-11-29T02:09:05.597Z,8.16
2022-11-29T02:11:48.743Z,8.22
2022-11-29T02:14:45.601Z,8.08
2022-11-29T02:17:27.005Z,8.16
2022-11-29T02:20:15.559Z,8.16
2022-11-29T02:22:56.599Z,8.23
2022-11-29T02:25:27.887Z,8.18
2022-11-29T02:28:35.681Z,8.15
2022-11-29T02:31:34.019Z,8.18
2022-11-29T02:34:34.408Z,8.15
2022-11-29T02:37:19.630Z,8.14
2022-11-29T02:40:07.361Z,8.15
2022-11-29T02:42:54.140Z,8.18
2022-11-29T02:45:33.898Z,8.19
2022-11-29T02:48:18.645Z,8.14
2022-11-29T02:50:50.726Z,8.18
2022-11-29T02:53:32.576Z,8.16
2022-11-29T02:56:01.770Z,8.19
2022-11-29T02:58:41.912Z,8.17
2022-11-29T03:01:32.964Z,8.17
2022-11-29T03:04:36.887Z,8.13
2022-11-29T03:07:16.582Z,8.11
2022-11-29T03:10:31.079Z,8.10
2022-11-29T03:12:59.068Z,8.06
2022-11-29T03:15:38.739Z,8.04
2022-11-29T03:18:20.543Z,8.06
2022-11-29T03:21:07.569Z,8.05
2022-11-29T03:23:50.119Z,8.03
2022-11-29T03:26:38.276Z,8.09
2022-11-29T03:29:23.276Z,8.07
2022-11-29T03:32:22.881Z,8.12
2022-11-29T03:35:04.113Z,8.08
2022-11-29T03:37:59.558Z,8.06
2022-11-29T03:40:42.125Z,8.06
2022-11-29T03:43:36.967Z,8.08
2022-11-29T03:46:12.241Z,8.09
2022-11-29T03:48:49.745Z,8.08
2022-11-29T03:51:19.081Z,8.07
2022-11-29T03:53:57.339Z,8.08
2022-11-29T03:56:37.552Z,8.09
2022-11-29T03:59:06.875Z,8.03
2022-11-29T04:01:42.614Z,8.01
2022-11-29T04:04:35.274Z,7.99
2022-11-29T04:07:25.722Z,8.01
2022-11-29T04:10:29.519Z,7.99
2022-11-29T04:13:14.596Z,7.97
2022-11-29T04:16:06.113Z,7.94
2022-11-29T04:18:57.784Z,8.02
2022-11-29T04:21:42.339Z,7.98
2022-11-29T04:24:38.329Z,7.98
2022-11-29T04:27:23.274Z,7.97
2022-11-29T04:30:02.126Z,7.97
2022-11-29T04:32:37.767Z,7.95
2022-11-29T04:35:25.529Z,7.95
2022-11-29T04:38:10.395Z,7.90
2022-11-29T04:40:50.906Z,7.89
2022-11-29T04:43:27.970Z,7.91
2022-11-29T04:46:25.183Z,7.96
2022-11-29T04:49:07.298Z,7.95
2022-11-29T04:52:02.831Z,7.94
2022-11-29T04:55:30.891Z,7.89
2022-11-29T04:58:01.546Z,7.89
2022-11-29T05:00:34.161Z,7.90
2022-11-29T05:03:09.137Z,7.88
2022-11-29T05:05:50.800Z,7.86
2022-11-29T05:08:41.223Z,7.84
2022-11-29T05:11:23.423Z,7.91
2022-11-29T05:14:08.814Z,7.88
2022-11-29T05:16:50.297Z,7.88
2022-11-29T05:19:29.745Z,7.84
2022-11-29T05:22:19.852Z,7.87
2022-11-29T05:25:00.890Z,7.91
2022-11-29T05:27:47.084Z,7.91
2022-11-29T05:30:15.256Z,7.88
2022-11-29T05:32:44.677Z,7.93
2022-11-29T05:35:35.909Z,7.86
2022-11-29T05:38:07.320Z,7.84
2022-11-29T05:40:39.531Z,7.89
2022-11-29T05:43:05.998Z,7.88
2022-11-29T05:45:43.466Z,7.88
2022-11-29T05:48:28.707Z,7.87
2022-11-29T05:51:16.154Z,7.84
2022-11-29T05:53:46.656Z,7.85
2022-11-29T05:56:25.238Z,7.86
2022-11-29T05:58:57.917Z,7.78
2022-11-29T06:01:45.435Z,7.81
2022-11-29T06:04:21.656Z,7.80
2022-11-29T06:06:57.842Z,7.84
2022-11-29T06:09:29.352Z,7.88
2022-11-29T06:12:02.544Z,7.87
2022-11-29T06:14:57.046Z,7.87
2022-11-29T06:17:55.222Z,7.93
2022-11-29T06:20:52.081Z,7.82
2022-11-29T06:23:41.539Z,7.79
2022-11-29T06:26:46.089Z,7.78
2022-11-29T06:29:38.881Z,7.79
2022-11-29T06:32:05.292Z,7.78
2022-11-29T06:35:01.509Z,7.80
2022-11-29T06:37:45.990Z,7.80
2022-11-29T06:40:15.844Z,7.81
2022-11-29T06:42:42.728Z,7.77
2022-11-29T06:45:14.250Z,7.75
2022-11-29T06:47:52.697Z,7.76
2022-11-29T06:50:33.856Z,7.78
2022-11-29T06:53:12.548Z,7.82
2022-11-29T06:56:12.922Z,7.69
2022-11-29T06:59:05.702Z,7.73
2022-11-29T07:01:44.490Z,7.69
2022-11-29T07:04:44.246Z,7.75
2022-11-29T07:07:17.962Z,7.79
2022-11-29T07:09:47.370Z,7.71
2022-11-29T07:12:14.320Z,7.74
2022-11-29T07:14:41.461Z,7.79
2022-11-29T07:17:26.761Z,7.77
2022-11-29T07:20:02.565Z,7.80
2022-11-29T07:23:00.776Z,7.71
2022-11-29T07:25:48.324Z,7.64
2022-11-29T07:28:34.616Z,7.65
2022-11-29T07:31:29.919Z,7.74
2022-11-29T07:34:21.359Z,7.76
2022-11-29T07:36:59.797Z,7.62
2022-11-29T07:39:35.206Z,7.64
2022-11-29T07:42:01.622Z,7.70
2022-11-29T07:44:53.780Z,7.59
2022-11-29T07:47:20.276Z,7.56
2022-11-29T07:49:46.731Z,7.62
2022-11-29T07:52:15.731Z,7.71
2022-11-29T07:54:42.709Z,7.73
2022-11-29T07:57:09.280Z,7.74
2022-11-29T07:59:35.758Z,7.73
2022-11-29T08:02:05.505Z,7.77
2022-11-29T08:04:35.412Z,7.79
2022-11-29T08:07:02.031Z,7.74
2022-11-29T08:09:28.547Z,7.76
2022-11-29T08:11:54.975Z,7.81
2022-11-29T08:14:21.521Z,7.79
2022-11-29T08:16:48.106Z,7.81
2022-11-29T08:19:14.641Z,7.83
2022-11-29T08:21:43.729Z,7.85
2022-11-29T08:24:10.403Z,7.89
2022-11-29T08:26:36.862Z,7.92
2022-11-29T08:29:03.546Z,7.92
2022-11-29T08:31:30.061Z,7.92
2022-11-29T08:33:56.566Z,7.93
2022-11-29T08:36:23.045Z,7.93
2022-11-29T08:38:50.990Z,7.87
2022-11-29T08:41:19.150Z,7.85
2022-11-29T08:43:45.742Z,7.91
2022-11-29T08:46:18.262Z,7.97
2022-11-29T08:48:45.377Z,7.99
2022-11-29T08:51:11.988Z,8.07
2022-11-29T08:53:41.413Z,7.91
2022-11-29T08:59:07.343Z,8.02
2022-11-29T09:01:33.911Z,7.94
2022-11-29T09:04:00.511Z,7.87
2022-11-29T09:06:28.949Z,7.97
2022-11-29T09:08:56.788Z,8.08
2022-11-29T09:11:25.665Z,8.10
2022-11-29T09:13:55.322Z,8.14
2022-11-29T09:16:26.359Z,8.06
2022-11-29T09:18:55.843Z,8.07
2022-11-29T09:21:27.115Z,8.08
2022-11-29T09:23:58.991Z,8.06
2022-11-29T09:26:27.936Z,8.01
2022-11-29T09:28:54.832Z,8.18
2022-11-29T09:31:21.978Z,8.16
2022-11-29T09:33:49.007Z,8.25
2022-11-29T09:36:15.648Z,8.18
2022-11-29T09:38:42.413Z,8.13
2022-11-29T09:41:27.048Z,8.12
2022-11-29T09:44:18.522Z,8.20
2022-11-29T09:47:04.374Z,8.12
2022-11-29T09:50:05.985Z,8.15
2022-11-29T09:52:55.665Z,8.22
2022-11-29T09:56:04.679Z,8.32
2022-11-29T09:58:55.474Z,8.28
2022-11-29T10:01:27.159Z,8.33
2022-11-29T10:03:58.264Z,8.46
2022-11-29T10:06:36.806Z,8.53
2022-11-29T10:09:20.568Z,8.63
2022-11-29T10:12:13.605Z,8.53
2022-11-29T10:14:57.777Z,8.62
2022-11-29T10:17:34.403Z,8.60
2022-11-29T10:20:21.154Z,8.74
2022-11-29T10:23:03.113Z,8.83
2022-11-29T10:25:37.708Z,8.73
2022-11-29T10:28:06.225Z,8.87
2022-11-29T10:30:35.290Z,9.01
2022-11-29T10:33:02.658Z,8.89
2022-11-29T10:35:29.513Z,8.80
2022-11-29T10:40:59.190Z,8.67
2022-11-29T10:43:26.321Z,8.85
2022-11-29T10:45:56.288Z,8.86
2022-11-29T10:48:27.578Z,8.87
2022-11-29T10:50:54.768Z,8.77
2022-11-29T10:53:26.993Z,8.70
2022-11-29T10:56:00.410Z,8.80
2022-11-29T10:58:29.167Z,8.87
2022-11-29T11:01:07.481Z,8.58
2022-11-29T11:03:45.081Z,8.50
2022-11-29T11:06:21.173Z,8.49
2022-11-29T11:08:54.576Z,8.73
2022-11-29T11:11:33.729Z,8.75
2022-11-29T11:14:25.925Z,8.67
2022-11-29T11:16:54.025Z,8.62
2022-11-29T11:19:31.450Z,8.54
2022-11-29T11:22:00.349Z,8.72
2022-11-29T11:24:30.090Z,8.72
2022-11-29T11:26:57.768Z,8.70
2022-11-29T11:29:42.393Z,8.68
2022-11-29T11:32:17.239Z,8.76
2022-11-29T11:34:55.858Z,8.94
2022-11-29T11:37:31.397Z,8.82
2022-11-29T11:40:29.195Z,8.88
2022-11-29T11:42:59.261Z,8.91
2022-11-29T11:45:27.454Z,8.91
2022-11-29T11:48:01.487Z,8.82
2022-11-29T11:50:36.530Z,8.88
2022-11-29T11:53:36.688Z,8.91
2022-11-29T11:56:10.121Z,8.98
2022-11-29T11:58:36.735Z,9.05
2022-11-29T12:01:12.536Z,9.01
2022-11-29T12:03:50.175Z,9.02
2022-11-29T12:06:31.686Z,9.04
2022-11-29T12:09:04.548Z,9.05
2022-11-29T12:11:55.304Z,9.03
2022-11-29T12:14:32.195Z,9.18
2022-11-29T12:17:28.057Z,9.16
2022-11-29T12:20:14.323Z,9.10
2022-11-29T12:23:05.355Z,9.12
2022-11-29T12:25:50.802Z,9.20
2022-11-29T12:28:20.889Z,9.29
2022-11-29T12:31:12.188Z,9.35
2022-11-29T12:33:57.128Z,9.47
2022-11-29T12:36:46.981Z,10.06
2022-11-29T12:39:34.341Z,9.69
2022-11-29T12:42:23.493Z,9.45
2022-11-29T12:45:02.228Z,9.43
2022-11-29T12:47:40.715Z,9.41
2022-11-29T12:50:25.030Z,9.36
2022-11-29T12:53:29.411Z,9.45
2022-11-29T12:56:36.506Z,9.47
2022-11-29T12:59:27.943Z,9.50
2022-11-29T13:02:19.349Z,9.41
2022-11-29T13:05:06.697Z,9.11
2022-11-29T13:07:59.659Z,9.01
2022-11-29T13:10:31.938Z,9.11
2022-11-29T13:13:12.229Z,9.12
2022-11-29T13:15:46.377Z,9.26
2022-11-29T13:18:26.931Z,9.28
2022-11-29T13:21:01.428Z,9.25
2022-11-29T13:24:06.920Z,9.19
2022-11-29T13:26:26.273Z,9.01
2022-11-29T13:28:53.835Z,8.95
2022-11-29T13:31:25.604Z,8.74
2022-11-29T13:34:04.377Z,8.79
2022-11-29T13:36:51.109Z,8.77
2022-11-29T13:39:36.470Z,8.81
2022-11-29T13:42:22.575Z,8.83
2022-11-29T13:45:01.259Z,8.69
2022-11-29T13:47:27.968Z,8.85
2022-11-29T13:50:03.691Z,8.76
2022-11-29T13:52:30.087Z,8.82
2022-11-29T13:55:11.902Z,8.77
2022-11-29T13:58:19.239Z,8.65
2022-11-29T14:00:45.774Z,8.61
2022-11-29T14:03:24.504Z,8.60
2022-11-29T14:05:53.578Z,8.67
2022-11-29T14:08:47.676Z,8.74
2022-11-29T14:11:17.518Z,8.76
2022-11-29T14:13:48.865Z,8.68
2022-11-29T14:16:25.700Z,8.84
2022-11-29T14:19:10.653Z,8.93
2022-11-29T14:21:59.054Z,8.75
2022-11-29T14:24:35.398Z,8.66
2022-11-29T14:27:07.657Z,8.64
2022-11-29T14:29:49.142Z,8.55
2022-11-29T14:32:46.467Z,8.47
2022-11-29T14:35:13.122Z,8.54
2022-11-29T14:37:58.335Z,8.51
2022-11-29T14:40:31.468Z,8.49
2022-11-29T14:42:58.223Z,8.50
2022-11-29T14:45:33.735Z,8.54
2022-11-29T14:48:01.714Z,8.54
2022-11-29T14:50:35.333Z,8.59
2022-11-29T14:53:03.262Z,8.49
2022-11-29T14:55:33.793Z,8.52
2022-11-29T14:58:16.193Z,8.58
2022-11-29T15:00:48.551Z,8.55
2022-11-29T15:03:24.540Z,8.57
2022-11-29T15:05:57.742Z,8.55
2022-11-29T15:08:26.902Z,8.54
2022-11-29T15:11:04.520Z,8.50
2022-11-29T15:13:34.145Z,8.50
2022-11-29T15:16:05.751Z,8.46
2022-11-29T15:18:50.531Z,8.44
2022-11-29T15:21:55.271Z,8.36
2022-11-29T15:24:26.708Z,8.41
2022-11-29T15:27:04.100Z,8.41
2022-11-29T15:29:31.960Z,8.39
2022-11-29T15:32:05.685Z,8.32
2022-11-29T15:34:34.520Z,8.16
2022-11-29T15:37:01.405Z,8.18
2022-11-29T15:39:37.741Z,8.12
2022-11-29T15:42:10.693Z,8.19
2022-11-29T15:44:37.704Z,8.19
2022-11-29T15:47:16.280Z,8.23
2022-11-29T15:49:42.851Z,8.16
2022-11-29T15:52:20.063Z,8.17
2022-11-29T15:54:51.264Z,8.15
2022-11-29T15:57:24.987Z,8.00
2022-11-29T16:00:01.223Z,8.06
2022-11-29T16:02:38.188Z,8.06
2022-11-29T16:05:14.466Z,8.11
2022-11-29T16:07:41.829Z,8.09
2022-11-29T16:10:16.549Z,8.07
2022-11-29T16:12:55.105Z,8.07
2022-11-29T16:15:30.713Z,8.01
2022-11-29T16:18:03.580Z,8.01
2022-11-29T16:20:30.382Z,8.06
2022-11-29T16:23:14.861Z,8.01
2022-11-29T16:25:58.916Z,7.98
2022-11-29T16:28:29.288Z,7.99
2022-11-29T16:30:55.811Z,8.01
2022-11-29T16:33:24.504Z,8.00
2022-11-29T16:35:51.758Z,8.05
2022-11-29T16:38:21.703Z,8.02
2022-11-29T16:41:19.978Z,7.98
2022-11-29T16:43:56.249Z,7.88
2022-11-29T16:46:22.744Z,7.93
2022-11-29T16:48:50.410Z,8.01
2022-11-29T16:51:23.796Z,7.94
2022-11-29T16:53:51.915Z,7.95
2022-11-29T16:56:27.714Z,8.00
2022-11-29T16:59:24.986Z,7.98
2022-11-29T17:01:46.703Z,7.97
2022-11-29T17:04:13.263Z,8.06
2022-11-29T17:06:50.782Z,7.94
2022-11-29T17:09:29.599Z,7.95
2022-11-29T17:11:59.729Z,7.95
2022-11-29T17:14:26.702Z,7.98
2022-11-29T17:16:53.316Z,7.97
2022-11-29T17:19:25.330Z,8.01
2022-11-29T17:21:53.008Z,8.01
2022-11-29T17:24:21.164Z,8.08
2022-11-29T17:26:47.819Z,8.06
2022-11-29T17:29:16.020Z,8.02
2022-11-29T17:31:44.154Z,8.09
2022-11-29T17:34:10.975Z,8.00
2022-11-29T17:36:38.265Z,7.99
2022-11-29T17:39:05.667Z,7.99
2022-11-29T17:41:33.065Z,7.99
2022-11-29T17:44:00.456Z,7.97
2022-11-29T17:46:30.124Z,8.05
2022-11-29T17:48:59.778Z,8.02
2022-11-29T17:51:51.078Z,7.98
2022-11-29T17:54:13.084Z,8.00
2022-11-29T17:56:39.588Z,8.07
2022-11-29T17:59:06.122Z,7.93
2022-11-29T18:01:35.825Z,7.96
2022-11-29T18:04:05.212Z,7.95
2022-11-29T18:06:36.796Z,7.99
2022-11-29T18:09:04.729Z,7.95
2022-11-29T18:11:48.205Z,7.96
2022-11-29T18:14:28.043Z,7.99
2022-11-29T18:16:54.661Z,7.98
2022-11-29T18:19:22.627Z,7.97
2022-11-29T18:21:50.191Z,7.90
2022-11-29T18:24:17.716Z,7.95
2022-11-29T18:26:44.479Z,7.86
2022-11-29T18:29:11.083Z,7.91
2022-11-29T18:31:41.090Z,7.89
2022-11-29T18:34:09.892Z,7.91
2022-11-29T18:36:48.237Z,7.84
2022-11-29T18:39:19.674Z,7.83
2022-11-29T18:41:49.455Z,7.71
2022-11-29T18:44:18.549Z,7.73
2022-11-29T18:46:45.962Z,7.72
2022-11-29T18:49:14.885Z,7.76
2022-11-29T18:51:44.823Z,7.77
2022-11-29T18:54:12.069Z,7.74
2022-11-29T18:56:38.777Z,7.76
2022-11-29T18:59:07.294Z,7.82
2022-11-29T19:01:41.224Z,7.74
2022-11-29T19:04:16.686Z,7.68
2022-11-29T19:06:43.541Z,7.72
2022-11-29T19:09:21.819Z,7.62
2022-11-29T19:11:49.618Z,7.61
2022-11-29T19:14:16.137Z,7.55
2022-11-29T19:16:45.105Z,7.48
2022-11-29T19:19:14.150Z,7.56
2022-11-29T19:21:41.378Z,7.63
2022-11-29T19:24:14.236Z,7.56
2022-11-29T19:26:44.248Z,7.53
2022-11-29T19:29:11.561Z,7.57
2022-11-29T19:31:39.310Z,7.48
2022-11-29T19:34:06.589Z,7.37
2022-11-29T19:36:33.139Z,7.45
2022-11-29T19:39:00.831Z,7.35
2022-11-29T19:41:33.214Z,7.46
2022-11-29T19:44:02.082Z,7.46
2022-11-29T19:46:34.249Z,7.45
2022-11-29T19:49:01.757Z,7.35
2022-11-29T19:51:29.808Z,7.43
2022-11-29T19:53:59.294Z,7.47
2022-11-29T19:56:26.993Z,7.45
2022-11-29T19:58:54.252Z,7.43
2022-11-29T20:01:25.145Z,7.42
2022-11-29T20:03:52.453Z,7.42
2022-11-29T20:06:19.523Z,7.32
2022-11-29T20:08:46.635Z,7.42
2022-11-29T20:11:15.827Z,7.54
2022-11-29T20:13:44.614Z,7.44
2022-11-29T20:16:14.597Z,7.37
2022-11-29T20:18:50.101Z,7.48
2022-11-29T20:21:23.160Z,7.49
2022-11-29T20:23:49.886Z,7.50
2022-11-29T20:26:19.539Z,7.49
2022-11-29T20:28:47.414Z,7.50
2022-11-29T20:31:21.486Z,7.43
2022-11-29T20:33:49.437Z,7.54
2022-11-29T20:36:18.662Z,7.39
2022-11-29T20:39:00.149Z,7.38
2022-11-29T20:41:45.119Z,7.34
2022-11-29T20:44:19.558Z,7.39
2022-11-29T20:46:46.276Z,7.40
2022-11-29T20:49:15.148Z,7.33
2022-11-29T20:52:02.356Z,7.36
2022-11-29T20:54:29.147Z,7.37
2022-11-29T20:56:55.642Z,7.37
2022-11-29T20:59:22.185Z,7.39
2022-11-29T21:01:48.673Z,7.56
2022-11-29T21:04:20.166Z,7.53
2022-11-29T21:06:49.538Z,7.64
2022-11-29T21:09:15.949Z,7.61
2022-11-29T21:11:42.492Z,7.53
2022-11-29T21:14:09.267Z,7.54
2022-11-29T21:16:35.900Z,7.58
2022-11-29T21:19:02.957Z,7.56
2022-11-29T21:22:01.373Z,7.56
2022-11-29T21:24:46.560Z,7.64
2022-11-29T21:27:18.069Z,7.56
2022-11-29T21:29:44.921Z,7.57
2022-11-29T21:32:22.213Z,7.68
2022-11-29T21:34:48.988Z,7.71
2022-11-29T21:37:18.243Z,7.65
2022-11-29T21:39:44.975Z,7.61
2022-11-29T21:42:11.469Z,7.60
2022-11-29T21:44:38.004Z,7.57
2022-11-29T21:47:04.661Z,7.69
2022-11-29T21:49:31.553Z,7.60
2022-11-29T21:52:00.952Z,7.61
2022-11-29T21:54:28.088Z,7.66
2022-11-29T21:56:55.531Z,7.66
2022-11-29T21:59:24.851Z,7.57
2022-11-29T22:01:52.251Z,7.61
2022-11-29T22:04:19.170Z,7.60
2022-11-29T22:06:45.854Z,7.62
2022-11-29T22:09:12.658Z,7.56
2022-11-29T22:11:39.488Z,7.57
2022-11-29T22:14:15.214Z,7.52
2022-11-29T22:16:55.245Z,7.58
2022-11-29T22:19:30.173Z,7.61
2022-11-29T22:21:59.412Z,7.59
2022-11-29T22:24:28.608Z,7.60
2022-11-29T22:26:55.359Z,7.68
2022-11-29T22:29:22.959Z,7.69
2022-11-29T22:31:55.226Z,7.68
2022-11-29T22:34:23.291Z,7.68
2022-11-29T22:36:49.692Z,7.75
2022-11-29T22:39:16.155Z,7.74
2022-11-29T22:41:42.834Z,7.75
2022-11-29T22:44:09.645Z,7.85
2022-11-29T22:46:36.446Z,7.81
2022-11-29T22:49:03.232Z,7.80
2022-11-29T22:51:32.441Z,7.83
2022-11-29T22:54:01.288Z,7.89
2022-11-29T22:56:30.158Z,7.84
2022-11-29T22:58:56.609Z,7.88
2022-11-29T23:01:25.650Z,7.76
2022-11-29T23:03:54.900Z,7.73
2022-11-29T23:06:25.200Z,7.68
2022-11-29T23:08:53.219Z,7.79
2022-11-29T23:11:28.822Z,7.79
2022-11-29T23:13:55.812Z,7.82
2022-11-29T23:16:25.459Z,7.82
2022-11-29T23:18:53.007Z,7.77
2022-11-29T23:21:23.334Z,7.76
2022-11-29T23:23:56.023Z,7.79
2022-11-29T23:26:27.111Z,7.73
2022-11-29T23:28:54.186Z,7.71
2022-11-29T23:31:21.524Z,7.79
2022-11-29T23:33:48.550Z,7.75
2022-11-29T23:36:16.423Z,7.68
2022-11-29T23:38:43.210Z,7.73
2022-11-29T23:41:10.546Z,7.64
2022-11-29T23:43:38.390Z,7.68
2022-11-29T23:46:09.598Z,7.73
2022-11-29T23:48:36.408Z,7.66
2022-11-29T23:51:02.971Z,7.68
2022-11-29T23:53:29.468Z,7.68
2022-11-29T23:55:57.809Z,7.67
2022-11-29T23:58:24.584Z,7.69
